sensor_id;sensor_type;location;lat;lon;timestamp;P1;durP1;ratioP1;P2;durP2;ratioP2
9846;SDS011;68671;50.084;8.794;2023-06-26T00:02:02;0.00;;;0.00;;
9846;SDS011;68671;50.084;8.794;2023-06-26T00:04:30;0.10;;;0.10;;
9846;SDS011;68671;50.084;8.794;2023-06-26T00:06:57;0.10;;;0.10;;
9846;SDS011;68671;50.084;8.794;2023-06-26T00:09:24;0.00;;;0.00;;
9846;SDS011;68671;50.084;8.794;2023-06-26T00:11:51;0.10;;;0.10;;
9846;SDS011;68671;50.084;8.794;2023-06-26T00:14:18;0.10;;;0.10;;
9846;SDS011;68671;50.084;8.794;2023-06-26T00:16:48;0.00;;;0.00;;
9846;SDS011;68671;50.084;8.794;2023-06-26T00:19:17;0.00;;;0.00;;
9846;SDS011;68671;50.084;8.794;2023-06-26T00:21:45;0.00;;;0.00;;
9846;SDS011;68671;50.084;8.794;2023-06-26T00:24:13;0.10;;;0.10;;
9846;SDS011;68671;50.084;8.794;2023-06-26T00:26:40;0.00;;;0.00;;
9846;SDS011;68671;50.084;8.794;2023-06-26T00:29:07;0.00;;;0.00;;
9846;SDS011;68671;50.084;8.794;2023-06-26T00:31:34;0.00;;;0.00;;
9846;SDS011;68671;50.084;8.794;2023-06-26T00:34:03;0.10;;;0.10;;
9846;SDS011;68671;50.084;8.794;2023-06-26T00:36:30;0.10;;;0.10;;
9846;SDS011;68671;50.084;8.794;2023-06-26T00:38:58;0.00;;;0.00;;
9846;SDS011;68671;50.084;8.794;2023-06-26T00:41:25;0.00;;;0.00;;
9846;SDS011;68671;50.084;8.794;2023-06-26T00:43:52;0.10;;;0.10;;
9846;SDS011;68671;50.084;8.794;2023-06-26T00:46:22;0.08;;;0.08;;
9846;SDS011;68671;50.084;8.794;2023-06-26T00:48:49;0.00;;;0.00;;
9846;SDS011;68671;50.084;8.794;2023-06-26T00:51:19;0.00;;;0.00;;
9846;SDS011;68671;50.084;8.794;2023-06-26T00:53:56;0.00;;;0.00;;
9846;SDS011;68671;50.084;8.794;2023-06-26T00:56:24;0.10;;;0.10;;
9846;SDS011;68671;50.084;8.794;2023-06-26T00:58:51;0.00;;;0.00;;
9846;SDS011;68671;50.084;8.794;2023-06-26T01:01:18;0.00;;;0.00;;
9846;SDS011;68671;50.084;8.794;2023-06-26T01:03:48;0.00;;;0.00;;
9846;SDS011;68671;50.084;8.794;2023-06-26T01:06:17;0.00;;;0.00;;
9846;SDS011;68671;50.084;8.794;2023-06-26T01:08:48;0.00;;;0.00;;
9846;SDS011;68671;50.084;8.794;2023-06-26T01:11:16;0.10;;;0.10;;
9846;SDS011;68671;50.084;8.794;2023-06-26T01:13:47;0.00;;;0.00;;
9846;SDS011;68671;50.084;8.794;2023-06-26T01:16:15;0.00;;;0.00;;
9846;SDS011;68671;50.084;8.794;2023-06-26T01:18:45;0.10;;;0.10;;
9846;SDS011;68671;50.084;8.794;2023-06-26T01:21:14;0.10;;;0.10;;
9846;SDS011;68671;50.084;8.794;2023-06-26T01:23:46;0.00;;;0.00;;
9846;SDS011;68671;50.084;8.794;2023-06-26T01:26:26;0.00;;;0.00;;
9846;SDS011;68671;50.084;8.794;2023-06-26T01:28:56;0.00;;;0.00;;
9846;SDS011;68671;50.084;8.794;2023-06-26T01:31:25;0.00;;;0.00;;
9846;SDS011;68671;50.084;8.794;2023-06-26T01:33:53;0.03;;;0.03;;
9846;SDS011;68671;50.084;8.794;2023-06-26T01:36:23;0.10;;;0.10;;
9846;SDS011;68671;50.084;8.794;2023-06-26T01:38:51;0.00;;;0.00;;
9846;SDS011;68671;50.084;8.794;2023-06-26T01:41:18;0.00;;;0.00;;
9846;SDS011;68671;50.084;8.794;2023-06-26T01:43:52;0.10;;;0.10;;
9846;SDS011;68671;50.084;8.794;2023-06-26T01:46:30;0.00;;;0.00;;
9846;SDS011;68671;50.084;8.794;2023-06-26T01:49:05;0.00;;;0.00;;
9846;SDS011;68671;50.084;8.794;2023-06-26T01:51:39;0.10;;;0.10;;
9846;SDS011;68671;50.084;8.794;2023-06-26T01:54:10;0.00;;;0.00;;
9846;SDS011;68671;50.084;8.794;2023-06-26T01:56:43;0.00;;;0.00;;
9846;SDS011;68671;50.084;8.794;2023-06-26T01:59:16;0.00;;;0.00;;
9846;SDS011;68671;50.084;8.794;2023-06-26T02:01:46;0.00;;;0.00;;
9846;SDS011;68671;50.084;8.794;2023-06-26T02:04:13;0.00;;;0.00;;
9846;SDS011;68671;50.084;8.794;2023-06-26T02:06:42;0.10;;;0.10;;
9846;SDS011;68671;50.084;8.794;2023-06-26T02:09:09;0.00;;;0.00;;
9846;SDS011;68671;50.084;8.794;2023-06-26T02:11:36;0.00;;;0.00;;
9846;SDS011;68671;50.084;8.794;2023-06-26T02:14:03;0.10;;;0.10;;
9846;SDS011;68671;50.084;8.794;2023-06-26T02:16:31;0.00;;;0.00;;
9846;SDS011;68671;50.084;8.794;2023-06-26T02:18:58;0.00;;;0.00;;
9846;SDS011;68671;50.084;8.794;2023-06-26T02:21:25;0.10;;;0.10;;
9846;SDS011;68671;50.084;8.794;2023-06-26T02:23:53;0.00;;;0.00;;
9846;SDS011;68671;50.084;8.794;2023-06-26T02:26:20;0.03;;;0.03;;
9846;SDS011;68671;50.084;8.794;2023-06-26T02:28:47;0.00;;;0.00;;
9846;SDS011;68671;50.084;8.794;2023-06-26T02:31:14;0.00;;;0.00;;
9846;SDS011;68671;50.084;8.794;2023-06-26T02:33:43;0.00;;;0.00;;
9846;SDS011;68671;50.084;8.794;2023-06-26T02:36:10;0.00;;;0.00;;
9846;SDS011;68671;50.084;8.794;2023-06-26T02:38:43;0.00;;;0.00;;
9846;SDS011;68671;50.084;8.794;2023-06-26T02:41:24;0.00;;;0.00;;
9846;SDS011;68671;50.084;8.794;2023-06-26T02:43:51;0.00;;;0.00;;
9846;SDS011;68671;50.084;8.794;2023-06-26T02:46:18;0.00;;;0.00;;
9846;SDS011;68671;50.084;8.794;2023-06-26T02:48:46;0.00;;;0.00;;
9846;SDS011;68671;50.084;8.794;2023-06-26T02:51:13;0.00;;;0.00;;
9846;SDS011;68671;50.084;8.794;2023-06-26T02:53:41;0.00;;;0.00;;
9846;SDS011;68671;50.084;8.794;2023-06-26T02:56:08;0.00;;;0.00;;
9846;SDS011;68671;50.084;8.794;2023-06-26T02:58:37;0.10;;;0.10;;
9846;SDS011;68671;50.084;8.794;2023-06-26T03:01:04;0.00;;;0.00;;
9846;SDS011;68671;50.084;8.794;2023-06-26T03:03:31;0.00;;;0.00;;
9846;SDS011;68671;50.084;8.794;2023-06-26T03:06:06;0.00;;;0.00;;
9846;SDS011;68671;50.084;8.794;2023-06-26T03:08:36;0.00;;;0.00;;
9846;SDS011;68671;50.084;8.794;2023-06-26T03:11:04;0.00;;;0.00;;
9846;SDS011;68671;50.084;8.794;2023-06-26T03:13:32;0.00;;;0.00;;
9846;SDS011;68671;50.084;8.794;2023-06-26T03:15:59;0.00;;;0.00;;
9846;SDS011;68671;50.084;8.794;2023-06-26T03:18:26;0.00;;;0.00;;
9846;SDS011;68671;50.084;8.794;2023-06-26T03:20:54;0.00;;;0.00;;
9846;SDS011;68671;50.084;8.794;2023-06-26T03:23:23;0.10;;;0.10;;
9846;SDS011;68671;50.084;8.794;2023-06-26T03:25:50;0.00;;;0.00;;
9846;SDS011;68671;50.084;8.794;2023-06-26T03:28:17;0.00;;;0.00;;
9846;SDS011;68671;50.084;8.794;2023-06-26T03:30:44;0.00;;;0.00;;
9846;SDS011;68671;50.084;8.794;2023-06-26T03:33:11;0.00;;;0.00;;
9846;SDS011;68671;50.084;8.794;2023-06-26T03:35:38;0.10;;;0.10;;
9846;SDS011;68671;50.084;8.794;2023-06-26T03:38:05;0.00;;;0.00;;
9846;SDS011;68671;50.084;8.794;2023-06-26T03:40:33;0.00;;;0.00;;
9846;SDS011;68671;50.084;8.794;2023-06-26T03:43:01;0.00;;;0.00;;
9846;SDS011;68671;50.084;8.794;2023-06-26T03:45:28;0.00;;;0.00;;
9846;SDS011;68671;50.084;8.794;2023-06-26T03:47:55;0.10;;;0.10;;
9846;SDS011;68671;50.084;8.794;2023-06-26T03:50:24;0.00;;;0.00;;
9846;SDS011;68671;50.084;8.794;2023-06-26T03:52:51;0.00;;;0.00;;
9846;SDS011;68671;50.084;8.794;2023-06-26T03:55:19;0.00;;;0.00;;
9846;SDS011;68671;50.084;8.794;2023-06-26T03:57:49;0.10;;;0.10;;
9846;SDS011;68671;50.084;8.794;2023-06-26T04:00:16;0.00;;;0.00;;
9846;SDS011;68671;50.084;8.794;2023-06-26T04:02:44;0.10;;;0.10;;
9846;SDS011;68671;50.084;8.794;2023-06-26T04:05:19;0.10;;;0.10;;
9846;SDS011;68671;50.084;8.794;2023-06-26T04:07:49;0.00;;;0.00;;
9846;SDS011;68671;50.084;8.794;2023-06-26T04:10:19;0.10;;;0.10;;
9846;SDS011;68671;50.084;8.794;2023-06-26T04:12:46;0.10;;;0.10;;
9846;SDS011;68671;50.084;8.794;2023-06-26T04:15:15;0.10;;;0.10;;
9846;SDS011;68671;50.084;8.794;2023-06-26T04:17:42;0.10;;;0.10;;
9846;SDS011;68671;50.084;8.794;2023-06-26T04:20:09;0.10;;;0.10;;
9846;SDS011;68671;50.084;8.794;2023-06-26T04:22:36;0.10;;;0.10;;
9846;SDS011;68671;50.084;8.794;2023-06-26T04:25:04;0.10;;;0.10;;
9846;SDS011;68671;50.084;8.794;2023-06-26T04:27:31;0.10;;;0.10;;
9846;SDS011;68671;50.084;8.794;2023-06-26T04:30:00;0.10;;;0.10;;
9846;SDS011;68671;50.084;8.794;2023-06-26T04:32:27;0.10;;;0.10;;
9846;SDS011;68671;50.084;8.794;2023-06-26T04:34:54;0.10;;;0.10;;
9846;SDS011;68671;50.084;8.794;2023-06-26T04:37:21;0.10;;;0.10;;
9846;SDS011;68671;50.084;8.794;2023-06-26T04:39:49;0.10;;;0.10;;
9846;SDS011;68671;50.084;8.794;2023-06-26T04:42:19;0.10;;;0.10;;
9846;SDS011;68671;50.084;8.794;2023-06-26T04:45:03;0.10;;;0.10;;
9846;SDS011;68671;50.084;8.794;2023-06-26T04:47:30;0.10;;;0.10;;
9846;SDS011;68671;50.084;8.794;2023-06-26T04:49:57;0.10;;;0.10;;
9846;SDS011;68671;50.084;8.794;2023-06-26T04:52:24;0.10;;;0.10;;
9846;SDS011;68671;50.084;8.794;2023-06-26T04:54:51;0.10;;;0.10;;
9846;SDS011;68671;50.084;8.794;2023-06-26T04:57:19;0.10;;;0.10;;
9846;SDS011;68671;50.084;8.794;2023-06-26T04:59:46;0.10;;;0.10;;
9846;SDS011;68671;50.084;8.794;2023-06-26T05:02:15;0.10;;;0.10;;
9846;SDS011;68671;50.084;8.794;2023-06-26T05:04:42;0.10;;;0.10;;
9846;SDS011;68671;50.084;8.794;2023-06-26T05:07:11;0.10;;;0.10;;
9846;SDS011;68671;50.084;8.794;2023-06-26T05:09:41;0.10;;;0.10;;
9846;SDS011;68671;50.084;8.794;2023-06-26T05:12:08;0.10;;;0.10;;
9846;SDS011;68671;50.084;8.794;2023-06-26T05:14:40;0.10;;;0.10;;
9846;SDS011;68671;50.084;8.794;2023-06-26T05:17:10;0.10;;;0.10;;
9846;SDS011;68671;50.084;8.794;2023-06-26T05:22:22;0.10;;;0.10;;
9846;SDS011;68671;50.084;8.794;2023-06-26T05:24:49;0.10;;;0.10;;
9846;SDS011;68671;50.084;8.794;2023-06-26T05:27:25;0.10;;;0.10;;
9846;SDS011;68671;50.084;8.794;2023-06-26T05:29:56;0.10;;;0.10;;
9846;SDS011;68671;50.084;8.794;2023-06-26T05:32:23;0.10;;;0.10;;
9846;SDS011;68671;50.084;8.794;2023-06-26T05:34:51;0.10;;;0.10;;
9846;SDS011;68671;50.084;8.794;2023-06-26T05:37:22;0.10;;;0.10;;
9846;SDS011;68671;50.084;8.794;2023-06-26T05:39:51;0.10;;;0.10;;
9846;SDS011;68671;50.084;8.794;2023-06-26T05:42:18;0.10;;;0.10;;
9846;SDS011;68671;50.084;8.794;2023-06-26T05:44:45;0.10;;;0.10;;
9846;SDS011;68671;50.084;8.794;2023-06-26T05:47:12;0.10;;;0.10;;
9846;SDS011;68671;50.084;8.794;2023-06-26T05:49:39;0.10;;;0.10;;
9846;SDS011;68671;50.084;8.794;2023-06-26T05:52:08;0.10;;;0.10;;
9846;SDS011;68671;50.084;8.794;2023-06-26T05:54:37;0.10;;;0.10;;
9846;SDS011;68671;50.084;8.794;2023-06-26T05:57:04;0.10;;;0.10;;
9846;SDS011;68671;50.084;8.794;2023-06-26T05:59:31;0.10;;;0.10;;
9846;SDS011;68671;50.084;8.794;2023-06-26T06:02:08;0.10;;;0.10;;
9846;SDS011;68671;50.084;8.794;2023-06-26T06:05:21;0.10;;;0.10;;
9846;SDS011;68671;50.084;8.794;2023-06-26T06:24:12;0.17;;;0.17;;
9846;SDS011;68671;50.084;8.794;2023-06-26T06:26:45;0.10;;;0.10;;
9846;SDS011;68671;50.084;8.794;2023-06-26T06:30:24;0.10;;;0.10;;
9846;SDS011;68671;50.084;8.794;2023-06-26T06:33:34;0.10;;;0.10;;
9846;SDS011;68671;50.084;8.794;2023-06-26T06:36:04;0.10;;;0.10;;
9846;SDS011;68671;50.084;8.794;2023-06-26T06:38:33;0.10;;;0.10;;
9846;SDS011;68671;50.084;8.794;2023-06-26T06:41:06;0.00;;;0.00;;
9846;SDS011;68671;50.084;8.794;2023-06-26T06:43:43;0.10;;;0.10;;
9846;SDS011;68671;50.084;8.794;2023-06-26T06:51:22;0.10;;;0.10;;
9846;SDS011;68671;50.084;8.794;2023-06-26T06:53:49;0.10;;;0.10;;
9846;SDS011;68671;50.084;8.794;2023-06-26T06:56:18;0.10;;;0.10;;
9846;SDS011;68671;50.084;8.794;2023-06-26T06:58:45;0.10;;;0.10;;
9846;SDS011;68671;50.084;8.794;2023-06-26T07:14:10;0.10;;;0.10;;
9846;SDS011;68671;50.084;8.794;2023-06-26T07:16:37;0.20;;;0.20;;
9846;SDS011;68671;50.084;8.794;2023-06-26T07:19:04;0.20;;;0.20;;
9846;SDS011;68671;50.084;8.794;2023-06-26T07:21:32;0.10;;;0.10;;
9846;SDS011;68671;50.084;8.794;2023-06-26T07:24:01;0.10;;;0.10;;
9846;SDS011;68671;50.084;8.794;2023-06-26T07:26:28;0.20;;;0.20;;
9846;SDS011;68671;50.084;8.794;2023-06-26T07:28:58;0.10;;;0.10;;
9846;SDS011;68671;50.084;8.794;2023-06-26T07:31:35;0.20;;;0.20;;
9846;SDS011;68671;50.084;8.794;2023-06-26T07:43:40;0.20;;;0.20;;
9846;SDS011;68671;50.084;8.794;2023-06-26T07:46:20;0.20;;;0.20;;
9846;SDS011;68671;50.084;8.794;2023-06-26T07:48:54;0.10;;;0.10;;
9846;SDS011;68671;50.084;8.794;2023-06-26T07:51:22;0.30;;;0.30;;
9846;SDS011;68671;50.084;8.794;2023-06-26T07:54:02;0.30;;;0.30;;
9846;SDS011;68671;50.084;8.794;2023-06-26T07:57:35;0.30;;;0.30;;
9846;SDS011;68671;50.084;8.794;2023-06-26T07:59:38;0.30;;;0.30;;
9846;SDS011;68671;50.084;8.794;2023-06-26T08:02:05;0.20;;;0.20;;
9846;SDS011;68671;50.084;8.794;2023-06-26T08:04:34;0.30;;;0.30;;
9846;SDS011;68671;50.084;8.794;2023-06-26T08:07:04;0.30;;;0.30;;
9846;SDS011;68671;50.084;8.794;2023-06-26T08:09:36;0.20;;;0.20;;
9846;SDS011;68671;50.084;8.794;2023-06-26T08:12:12;0.40;;;0.40;;
9846;SDS011;68671;50.084;8.794;2023-06-26T08:14:52;0.35;;;0.35;;
9846;SDS011;68671;50.084;8.794;2023-06-26T08:17:33;0.20;;;0.20;;
9846;SDS011;68671;50.084;8.794;2023-06-26T08:20:02;0.20;;;0.20;;
9846;SDS011;68671;50.084;8.794;2023-06-26T08:22:30;0.15;;;0.15;;
9846;SDS011;68671;50.084;8.794;2023-06-26T08:24:57;0.20;;;0.20;;
9846;SDS011;68671;50.084;8.794;2023-06-26T08:27:24;0.20;;;0.20;;
9846;SDS011;68671;50.084;8.794;2023-06-26T08:29:51;0.15;;;0.15;;
9846;SDS011;68671;50.084;8.794;2023-06-26T08:32:18;0.15;;;0.15;;
9846;SDS011;68671;50.084;8.794;2023-06-26T08:34:47;0.10;;;0.10;;
9846;SDS011;68671;50.084;8.794;2023-06-26T08:37:17;0.10;;;0.10;;
9846;SDS011;68671;50.084;8.794;2023-06-26T08:39:50;0.10;;;0.10;;
9846;SDS011;68671;50.084;8.794;2023-06-26T08:54:45;0.10;;;0.10;;
9846;SDS011;68671;50.084;8.794;2023-06-26T08:57:15;0.10;;;0.10;;
9846;SDS011;68671;50.084;8.794;2023-06-26T08:59:46;0.10;;;0.10;;
9846;SDS011;68671;50.084;8.794;2023-06-26T09:02:16;0.10;;;0.10;;
9846;SDS011;68671;50.084;8.794;2023-06-26T09:08:34;0.10;;;0.10;;
9846;SDS011;68671;50.084;8.794;2023-06-26T09:15:02;0.10;;;0.10;;
9846;SDS011;68671;50.084;8.794;2023-06-26T09:17:42;0.10;;;0.10;;
9846;SDS011;68671;50.084;8.794;2023-06-26T09:20:09;0.10;;;0.10;;
9846;SDS011;68671;50.084;8.794;2023-06-26T09:25:39;0.10;;;0.10;;
9846;SDS011;68671;50.084;8.794;2023-06-26T09:28:24;0.10;;;0.10;;
9846;SDS011;68671;50.084;8.794;2023-06-26T09:31:02;0.10;;;0.10;;
9846;SDS011;68671;50.084;8.794;2023-06-26T09:33:33;0.10;;;0.10;;
9846;SDS011;68671;50.084;8.794;2023-06-26T09:36:03;0.10;;;0.10;;
9846;SDS011;68671;50.084;8.794;2023-06-26T09:39:13;0.10;;;0.10;;
9846;SDS011;68671;50.084;8.794;2023-06-26T09:41:49;0.10;;;0.10;;
9846;SDS011;68671;50.084;8.794;2023-06-26T09:47:45;0.10;;;0.10;;
9846;SDS011;68671;50.084;8.794;2023-06-26T09:50:20;0.10;;;0.10;;
9846;SDS011;68671;50.084;8.794;2023-06-26T09:52:50;0.10;;;0.10;;
9846;SDS011;68671;50.084;8.794;2023-06-26T09:55:17;0.10;;;0.10;;
9846;SDS011;68671;50.084;8.794;2023-06-26T09:57:47;0.10;;;0.10;;
9846;SDS011;68671;50.084;8.794;2023-06-26T10:00:15;0.10;;;0.10;;
9846;SDS011;68671;50.084;8.794;2023-06-26T10:02:44;0.07;;;0.07;;
9846;SDS011;68671;50.084;8.794;2023-06-26T10:05:11;0.10;;;0.10;;
9846;SDS011;68671;50.084;8.794;2023-06-26T10:07:38;0.00;;;0.00;;
9846;SDS011;68671;50.084;8.794;2023-06-26T10:10:07;0.10;;;0.10;;
9846;SDS011;68671;50.084;8.794;2023-06-26T10:12:34;0.10;;;0.10;;
9846;SDS011;68671;50.084;8.794;2023-06-26T10:15:02;0.10;;;0.10;;
9846;SDS011;68671;50.084;8.794;2023-06-26T10:17:32;0.10;;;0.10;;
9846;SDS011;68671;50.084;8.794;2023-06-26T10:20:03;0.10;;;0.10;;
9846;SDS011;68671;50.084;8.794;2023-06-26T10:22:33;0.00;;;0.00;;
9846;SDS011;68671;50.084;8.794;2023-06-26T10:25:06;0.10;;;0.10;;
9846;SDS011;68671;50.084;8.794;2023-06-26T10:27:36;0.10;;;0.10;;
9846;SDS011;68671;50.084;8.794;2023-06-26T10:30:09;0.10;;;0.10;;
9846;SDS011;68671;50.084;8.794;2023-06-26T10:32:39;0.10;;;0.10;;
9846;SDS011;68671;50.084;8.794;2023-06-26T10:35:08;0.10;;;0.10;;
9846;SDS011;68671;50.084;8.794;2023-06-26T10:37:40;0.10;;;0.10;;
9846;SDS011;68671;50.084;8.794;2023-06-26T10:40:08;0.10;;;0.10;;
9846;SDS011;68671;50.084;8.794;2023-06-26T10:42:36;0.10;;;0.10;;
9846;SDS011;68671;50.084;8.794;2023-06-26T10:45:13;0.10;;;0.10;;
9846;SDS011;68671;50.084;8.794;2023-06-26T10:47:41;0.10;;;0.10;;
9846;SDS011;68671;50.084;8.794;2023-06-26T10:50:18;0.10;;;0.10;;
9846;SDS011;68671;50.084;8.794;2023-06-26T10:56:02;0.10;;;0.10;;
9846;SDS011;68671;50.084;8.794;2023-06-26T10:59:17;0.10;;;0.10;;
9846;SDS011;68671;50.084;8.794;2023-06-26T11:01:58;0.10;;;0.10;;
9846;SDS011;68671;50.084;8.794;2023-06-26T11:04:49;0.10;;;0.10;;
9846;SDS011;68671;50.084;8.794;2023-06-26T11:07:35;0.10;;;0.10;;
9846;SDS011;68671;50.084;8.794;2023-06-26T11:10:25;0.10;;;0.10;;
9846;SDS011;68671;50.084;8.794;2023-06-26T11:12:58;0.10;;;0.10;;
9846;SDS011;68671;50.084;8.794;2023-06-26T11:15:28;0.10;;;0.10;;
9846;SDS011;68671;50.084;8.794;2023-06-26T11:17:55;0.10;;;0.10;;
9846;SDS011;68671;50.084;8.794;2023-06-26T11:20:24;0.10;;;0.10;;
9846;SDS011;68671;50.084;8.794;2023-06-26T11:22:58;0.10;;;0.10;;
9846;SDS011;68671;50.084;8.794;2023-06-26T11:25:28;0.10;;;0.10;;
9846;SDS011;68671;50.084;8.794;2023-06-26T11:27:56;0.10;;;0.10;;
9846;SDS011;68671;50.084;8.794;2023-06-26T11:30:24;0.10;;;0.10;;
9846;SDS011;68671;50.084;8.794;2023-06-26T11:32:52;0.10;;;0.10;;
9846;SDS011;68671;50.084;8.794;2023-06-26T11:35:22;0.10;;;0.10;;
9846;SDS011;68671;50.084;8.794;2023-06-26T11:37:54;0.10;;;0.10;;
9846;SDS011;68671;50.084;8.794;2023-06-26T11:40:24;0.10;;;0.10;;
9846;SDS011;68671;50.084;8.794;2023-06-26T11:43:02;0.10;;;0.10;;
9846;SDS011;68671;50.084;8.794;2023-06-26T11:45:33;0.10;;;0.10;;
9846;SDS011;68671;50.084;8.794;2023-06-26T11:57:57;0.10;;;0.10;;
9846;SDS011;68671;50.084;8.794;2023-06-26T12:00:24;0.10;;;0.10;;
9846;SDS011;68671;50.084;8.794;2023-06-26T12:02:51;0.10;;;0.10;;
9846;SDS011;68671;50.084;8.794;2023-06-26T12:05:19;0.10;;;0.10;;
9846;SDS011;68671;50.084;8.794;2023-06-26T12:07:47;0.10;;;0.10;;
9846;SDS011;68671;50.084;8.794;2023-06-26T12:10:16;0.10;;;0.10;;
9846;SDS011;68671;50.084;8.794;2023-06-26T12:12:45;0.10;;;0.10;;
9846;SDS011;68671;50.084;8.794;2023-06-26T12:15:14;0.10;;;0.10;;
9846;SDS011;68671;50.084;8.794;2023-06-26T12:17:42;0.10;;;0.10;;
9846;SDS011;68671;50.084;8.794;2023-06-26T12:20:17;0.00;;;0.00;;
9846;SDS011;68671;50.084;8.794;2023-06-26T12:22:45;0.10;;;0.10;;
9846;SDS011;68671;50.084;8.794;2023-06-26T12:25:13;0.10;;;0.10;;
9846;SDS011;68671;50.084;8.794;2023-06-26T12:27:40;0.10;;;0.10;;
9846;SDS011;68671;50.084;8.794;2023-06-26T12:30:08;0.10;;;0.10;;
9846;SDS011;68671;50.084;8.794;2023-06-26T12:32:36;0.10;;;0.10;;
9846;SDS011;68671;50.084;8.794;2023-06-26T12:35:04;0.10;;;0.10;;
9846;SDS011;68671;50.084;8.794;2023-06-26T12:37:36;0.10;;;0.10;;
9846;SDS011;68671;50.084;8.794;2023-06-26T12:40:10;0.10;;;0.10;;
9846;SDS011;68671;50.084;8.794;2023-06-26T12:42:44;0.10;;;0.10;;
9846;SDS011;68671;50.084;8.794;2023-06-26T12:45:12;0.10;;;0.10;;
9846;SDS011;68671;50.084;8.794;2023-06-26T12:47:41;0.10;;;0.10;;
9846;SDS011;68671;50.084;8.794;2023-06-26T12:50:09;0.03;;;0.03;;
9846;SDS011;68671;50.084;8.794;2023-06-26T12:52:36;0.10;;;0.10;;
9846;SDS011;68671;50.084;8.794;2023-06-26T12:55:03;0.10;;;0.10;;
9846;SDS011;68671;50.084;8.794;2023-06-26T12:57:32;0.00;;;0.00;;
9846;SDS011;68671;50.084;8.794;2023-06-26T12:59:59;0.10;;;0.10;;
9846;SDS011;68671;50.084;8.794;2023-06-26T13:02:26;0.10;;;0.10;;
9846;SDS011;68671;50.084;8.794;2023-06-26T13:04:55;0.10;;;0.10;;
9846;SDS011;68671;50.084;8.794;2023-06-26T13:07:22;0.10;;;0.10;;
9846;SDS011;68671;50.084;8.794;2023-06-26T13:09:50;0.10;;;0.10;;
9846;SDS011;68671;50.084;8.794;2023-06-26T13:12:17;0.10;;;0.10;;
9846;SDS011;68671;50.084;8.794;2023-06-26T13:14:44;0.10;;;0.10;;
9846;SDS011;68671;50.084;8.794;2023-06-26T13:17:11;0.10;;;0.10;;
9846;SDS011;68671;50.084;8.794;2023-06-26T13:19:39;0.10;;;0.10;;
9846;SDS011;68671;50.084;8.794;2023-06-26T13:22:10;0.10;;;0.10;;
9846;SDS011;68671;50.084;8.794;2023-06-26T13:24:38;0.00;;;0.00;;
9846;SDS011;68671;50.084;8.794;2023-06-26T13:27:06;0.10;;;0.10;;
9846;SDS011;68671;50.084;8.794;2023-06-26T13:29:33;0.10;;;0.10;;
9846;SDS011;68671;50.084;8.794;2023-06-26T13:32:00;0.10;;;0.10;;
9846;SDS011;68671;50.084;8.794;2023-06-26T13:34:28;0.05;;;0.05;;
9846;SDS011;68671;50.084;8.794;2023-06-26T13:36:58;0.10;;;0.10;;
9846;SDS011;68671;50.084;8.794;2023-06-26T13:39:27;0.00;;;0.00;;
9846;SDS011;68671;50.084;8.794;2023-06-26T13:41:57;0.10;;;0.10;;
9846;SDS011;68671;50.084;8.794;2023-06-26T13:44:25;0.05;;;0.05;;
9846;SDS011;68671;50.084;8.794;2023-06-26T13:46:52;0.10;;;0.10;;
9846;SDS011;68671;50.084;8.794;2023-06-26T13:49:46;0.10;;;0.10;;
9846;SDS011;68671;50.084;8.794;2023-06-26T13:52:13;0.10;;;0.10;;
9846;SDS011;68671;50.084;8.794;2023-06-26T13:54:42;0.10;;;0.10;;
9846;SDS011;68671;50.084;8.794;2023-06-26T13:57:09;0.10;;;0.10;;
9846;SDS011;68671;50.084;8.794;2023-06-26T13:59:37;0.10;;;0.10;;
9846;SDS011;68671;50.084;8.794;2023-06-26T14:02:05;0.10;;;0.10;;
9846;SDS011;68671;50.084;8.794;2023-06-26T14:04:34;0.10;;;0.10;;
9846;SDS011;68671;50.084;8.794;2023-06-26T14:07:02;0.10;;;0.10;;
9846;SDS011;68671;50.084;8.794;2023-06-26T14:09:29;0.10;;;0.10;;
9846;SDS011;68671;50.084;8.794;2023-06-26T14:11:58;0.10;;;0.10;;
9846;SDS011;68671;50.084;8.794;2023-06-26T14:14:25;0.10;;;0.10;;
9846;SDS011;68671;50.084;8.794;2023-06-26T14:16:53;0.10;;;0.10;;
9846;SDS011;68671;50.084;8.794;2023-06-26T14:19:20;0.00;;;0.00;;
9846;SDS011;68671;50.084;8.794;2023-06-26T14:21:47;0.10;;;0.10;;
9846;SDS011;68671;50.084;8.794;2023-06-26T14:24:14;0.10;;;0.10;;
9846;SDS011;68671;50.084;8.794;2023-06-26T14:26:41;0.00;;;0.00;;
9846;SDS011;68671;50.084;8.794;2023-06-26T14:29:09;0.10;;;0.10;;
9846;SDS011;68671;50.084;8.794;2023-06-26T14:31:38;0.10;;;0.10;;
9846;SDS011;68671;50.084;8.794;2023-06-26T14:34:05;0.10;;;0.10;;
9846;SDS011;68671;50.084;8.794;2023-06-26T14:36:35;0.10;;;0.10;;
9846;SDS011;68671;50.084;8.794;2023-06-26T14:39:02;0.03;;;0.03;;
9846;SDS011;68671;50.084;8.794;2023-06-26T14:41:29;0.10;;;0.10;;
9846;SDS011;68671;50.084;8.794;2023-06-26T14:43:56;0.10;;;0.10;;
9846;SDS011;68671;50.084;8.794;2023-06-26T14:46:25;0.10;;;0.10;;
9846;SDS011;68671;50.084;8.794;2023-06-26T14:48:55;0.10;;;0.10;;
9846;SDS011;68671;50.084;8.794;2023-06-26T14:51:21;0.10;;;0.10;;
9846;SDS011;68671;50.084;8.794;2023-06-26T14:53:49;0.00;;;0.00;;
9846;SDS011;68671;50.084;8.794;2023-06-26T14:56:16;0.10;;;0.10;;
9846;SDS011;68671;50.084;8.794;2023-06-26T14:58:43;0.10;;;0.10;;
9846;SDS011;68671;50.084;8.794;2023-06-26T15:01:12;0.10;;;0.10;;
9846;SDS011;68671;50.084;8.794;2023-06-26T15:03:42;0.00;;;0.00;;
9846;SDS011;68671;50.084;8.794;2023-06-26T15:06:09;0.08;;;0.08;;
9846;SDS011;68671;50.084;8.794;2023-06-26T15:08:36;0.08;;;0.08;;
9846;SDS011;68671;50.084;8.794;2023-06-26T15:11:02;0.10;;;0.10;;
9846;SDS011;68671;50.084;8.794;2023-06-26T15:13:29;0.00;;;0.00;;
9846;SDS011;68671;50.084;8.794;2023-06-26T15:16:00;0.10;;;0.10;;
9846;SDS011;68671;50.084;8.794;2023-06-26T15:18:29;0.10;;;0.10;;
9846;SDS011;68671;50.084;8.794;2023-06-26T15:20:57;0.10;;;0.10;;
9846;SDS011;68671;50.084;8.794;2023-06-26T15:23:24;0.10;;;0.10;;
9846;SDS011;68671;50.084;8.794;2023-06-26T15:25:52;0.10;;;0.10;;
9846;SDS011;68671;50.084;8.794;2023-06-26T15:28:19;0.10;;;0.10;;
9846;SDS011;68671;50.084;8.794;2023-06-26T15:30:46;0.10;;;0.10;;
9846;SDS011;68671;50.084;8.794;2023-06-26T15:33:13;0.10;;;0.10;;
9846;SDS011;68671;50.084;8.794;2023-06-26T15:35:40;0.10;;;0.10;;
9846;SDS011;68671;50.084;8.794;2023-06-26T15:38:10;0.10;;;0.10;;
9846;SDS011;68671;50.084;8.794;2023-06-26T15:40:41;0.10;;;0.10;;
9846;SDS011;68671;50.084;8.794;2023-06-26T15:43:11;0.00;;;0.00;;
9846;SDS011;68671;50.084;8.794;2023-06-26T15:45:48;0.10;;;0.10;;
9846;SDS011;68671;50.084;8.794;2023-06-26T15:48:18;0.10;;;0.10;;
9846;SDS011;68671;50.084;8.794;2023-06-26T15:50:45;0.10;;;0.10;;
9846;SDS011;68671;50.084;8.794;2023-06-26T15:53:16;0.00;;;0.00;;
9846;SDS011;68671;50.084;8.794;2023-06-26T15:55:44;0.00;;;0.00;;
9846;SDS011;68671;50.084;8.794;2023-06-26T15:58:10;0.00;;;0.00;;
9846;SDS011;68671;50.084;8.794;2023-06-26T16:00:37;0.10;;;0.10;;
9846;SDS011;68671;50.084;8.794;2023-06-26T16:03:07;0.00;;;0.00;;
9846;SDS011;68671;50.084;8.794;2023-06-26T16:05:35;0.00;;;0.00;;
9846;SDS011;68671;50.084;8.794;2023-06-26T16:08:08;0.00;;;0.00;;
9846;SDS011;68671;50.084;8.794;2023-06-26T16:10:49;0.00;;;0.00;;
9846;SDS011;68671;50.084;8.794;2023-06-26T16:13:34;0.03;;;0.03;;
9846;SDS011;68671;50.084;8.794;2023-06-26T16:16:06;0.00;;;0.00;;
9846;SDS011;68671;50.084;8.794;2023-06-26T16:18:34;0.10;;;0.10;;
9846;SDS011;68671;50.084;8.794;2023-06-26T16:21:04;0.10;;;0.10;;
9846;SDS011;68671;50.084;8.794;2023-06-26T16:23:35;0.10;;;0.10;;
9846;SDS011;68671;50.084;8.794;2023-06-26T16:26:03;0.10;;;0.10;;
9846;SDS011;68671;50.084;8.794;2023-06-26T16:28:30;0.10;;;0.10;;
9846;SDS011;68671;50.084;8.794;2023-06-26T16:30:57;0.00;;;0.00;;
9846;SDS011;68671;50.084;8.794;2023-06-26T16:33:24;0.08;;;0.08;;
9846;SDS011;68671;50.084;8.794;2023-06-26T16:35:51;0.10;;;0.10;;
9846;SDS011;68671;50.084;8.794;2023-06-26T16:38:18;0.10;;;0.10;;
9846;SDS011;68671;50.084;8.794;2023-06-26T16:40:45;0.00;;;0.00;;
9846;SDS011;68671;50.084;8.794;2023-06-26T16:43:14;0.00;;;0.00;;
9846;SDS011;68671;50.084;8.794;2023-06-26T16:45:42;0.10;;;0.10;;